sensor_id;sensor_type;location;lat;lon;timestamp;pressure;altitude;pressure_sealevel;temperature;humidity
6835;BME280;3455;42.150;24.734;2023-05-29T00:01:00;67903.16;;;23.09;70.56
6835;BME280;3455;42.150;24.734;2023-05-29T00:03:27;67933.38;;;23.26;69.60
6835;BME280;3455;42.150;24.734;2023-05-29T00:05:58;67909.25;;;23.12;70.11
6835;BME280;3455;42.150;24.734;2023-05-29T00:08:26;67947.28;;;23.50;68.58
6835;BME280;3455;42.150;24.734;2023-05-29T00:10:53;67949.19;;;23.45;68.47
6835;BME280;3455;42.150;24.734;2023-05-29T00:13:22;67939.28;;;23.52;68.73
6835;BME280;3455;42.150;24.734;2023-05-29T00:15:48;67989.03;;;23.68;67.36
6835;BME280;3455;42.150;24.734;2023-05-29T00:18:15;67990.03;;;23.60;67.68
6835;BME280;3455;42.150;24.734;2023-05-29T00:20:42;67992.63;;;23.76;67.26
6835;BME280;3455;42.150;24.734;2023-05-29T00:23:08;67986.19;;;23.39;67.88
6835;BME280;3455;42.150;24.734;2023-05-29T00:25:35;67973.41;;;23.64;67.44
6835;BME280;3455;42.150;24.734;2023-05-29T00:28:02;67940.44;;;23.21;68.60
6835;BME280;3455;42.150;24.734;2023-05-29T00:30:30;67962.41;;;23.59;67.49
6835;BME280;3455;42.150;24.734;2023-05-29T00:32:57;67895.81;;;23.16;68.77
6835;BME280;3455;42.150;24.734;2023-05-29T00:35:24;68012.81;;;23.48;67.67
6835;BME280;3455;42.150;24.734;2023-05-29T00:37:51;68016.16;;;23.74;66.61
6835;BME280;3455;42.150;24.734;2023-05-29T00:40:17;67946.13;;;23.49;67.31
6835;BME280;3455;42.150;24.734;2023-05-29T00:42:44;67976.34;;;23.66;66.92
6835;BME280;3455;42.150;24.734;2023-05-29T00:45:11;67978.00;;;23.63;67.05
6835;BME280;3455;42.150;24.734;2023-05-29T00:47:40;67991.78;;;23.62;67.32
6835;BME280;3455;42.150;24.734;2023-05-29T00:50:09;67908.91;;;23.09;69.27
6835;BME280;3455;42.150;24.734;2023-05-29T00:52:39;67891.91;;;23.06;69.79
6835;BME280;3455;42.150;24.734;2023-05-29T00:55:07;67884.59;;;23.02;70.41
6835;BME280;3455;42.150;24.734;2023-05-29T00:57:35;67884.06;;;23.17;69.41
6835;BME280;3455;42.150;24.734;2023-05-29T01:00:05;67919.94;;;23.30;69.26
6835;BME280;3455;42.150;24.734;2023-05-29T01:02:34;67924.09;;;23.39;68.81
6835;BME280;3455;42.150;24.734;2023-05-29T01:05:04;68017.66;;;23.46;68.84
6835;BME280;3455;42.150;24.734;2023-05-29T01:07:32;67965.06;;;23.47;68.80
6835;BME280;3455;42.150;24.734;2023-05-29T01:09:59;67945.13;;;23.57;68.59
6835;BME280;3455;42.150;24.734;2023-05-29T01:12:35;67965.63;;;23.64;68.15
6835;BME280;3455;42.150;24.734;2023-05-29T01:15:17;67925.19;;;23.35;68.65
6835;BME280;3455;42.150;24.734;2023-05-29T01:17:58;67912.09;;;23.10;69.33
6835;BME280;3455;42.150;24.734;2023-05-29T01:20:34;68078.16;;;23.38;68.85
6835;BME280;3455;42.150;24.734;2023-05-29T01:23:29;67968.50;;;23.46;67.93
6835;BME280;3455;42.150;24.734;2023-05-29T01:26:21;67951.31;;;23.49;67.71
6835;BME280;3455;42.150;24.734;2023-05-29T01:28:54;67939.19;;;23.47;68.10
6835;BME280;3455;42.150;24.734;2023-05-29T01:31:25;67929.09;;;23.29;68.84
6835;BME280;3455;42.150;24.734;2023-05-29T01:33:53;67939.19;;;23.31;67.97
6835;BME280;3455;42.150;24.734;2023-05-29T01:36:20;67944.13;;;23.33;67.71
6835;BME280;3455;42.150;24.734;2023-05-29T01:38:47;67910.25;;;23.04;68.82
6835;BME280;3455;42.150;24.734;2023-05-29T01:41:14;67933.50;;;23.36;67.86
6835;BME280;3455;42.150;24.734;2023-05-29T01:43:42;67949.97;;;23.39;67.52
6835;BME280;3455;42.150;24.734;2023-05-29T01:46:12;67975.59;;;23.41;67.69
6835;BME280;3455;42.150;24.734;2023-05-29T01:48:39;67911.75;;;23.23;67.76
6835;BME280;3455;42.150;24.734;2023-05-29T01:51:07;67927.09;;;23.14;67.74
6835;BME280;3455;42.150;24.734;2023-05-29T01:53:34;67896.75;;;23.19;67.92
6835;BME280;3455;42.150;24.734;2023-05-29T01:56:00;67864.09;;;22.79;68.14
6835;BME280;3455;42.150;24.734;2023-05-29T01:58:27;67908.75;;;23.16;67.53
6835;BME280;3455;42.150;24.734;2023-05-29T02:00:57;67934.44;;;23.39;66.49
6835;BME280;3455;42.150;24.734;2023-05-29T02:03:25;67975.00;;;23.56;66.21
6835;BME280;3455;42.150;24.734;2023-05-29T02:05:54;67989.38;;;23.55;65.94
6835;BME280;3455;42.150;24.734;2023-05-29T02:08:21;67964.16;;;23.28;66.54
6835;BME280;3455;42.150;24.734;2023-05-29T02:10:47;67949.47;;;23.43;66.18
6835;BME280;3455;42.150;24.734;2023-05-29T02:13:14;67922.44;;;23.10;67.06
6835;BME280;3455;42.150;24.734;2023-05-29T02:15:41;67932.94;;;23.19;66.53
6835;BME280;3455;42.150;24.734;2023-05-29T02:18:09;67947.63;;;23.37;65.43
6835;BME280;3455;42.150;24.734;2023-05-29T02:20:38;67902.16;;;23.17;65.98
6835;BME280;3455;42.150;24.734;2023-05-29T02:23:05;67909.56;;;22.99;66.57
6835;BME280;3455;42.150;24.734;2023-05-29T02:25:32;67894.94;;;23.02;66.27
6835;BME280;3455;42.150;24.734;2023-05-29T02:27:59;67942.63;;;23.14;66.14
6835;BME280;3455;42.150;24.734;2023-05-29T02:30:25;67885.38;;;22.96;66.35
6835;BME280;3455;42.150;24.734;2023-05-29T02:32:52;67864.94;;;22.93;66.73
6835;BME280;3455;42.150;24.734;2023-05-29T02:35:19;67906.25;;;23.05;66.63
6835;BME280;3455;42.150;24.734;2023-05-29T02:37:49;67946.44;;;23.36;65.74
6835;BME280;3455;42.150;24.734;2023-05-29T02:40:16;67933.28;;;23.06;66.57
6835;BME280;3455;42.150;24.734;2023-05-29T02:42:43;67888.88;;;22.99;66.94
6835;BME280;3455;42.150;24.734;2023-05-29T02:45:10;67919.41;;;23.03;67.07
6835;BME280;3455;42.150;24.734;2023-05-29T02:47:37;67907.88;;;23.02;66.65
6835;BME280;3455;42.150;24.734;2023-05-29T02:50:04;67887.19;;;23.02;66.46
6835;BME280;3455;42.150;24.734;2023-05-29T02:52:32;67899.03;;;22.89;66.63
6835;BME280;3455;42.150;24.734;2023-05-29T02:55:00;67965.72;;;23.37;65.67
6835;BME280;3455;42.150;24.734;2023-05-29T02:57:27;67961.81;;;23.26;65.50
6835;BME280;3455;42.150;24.734;2023-05-29T02:59:53;67915.56;;;23.13;66.55
6835;BME280;3455;42.150;24.734;2023-05-29T03:02:21;67903.16;;;23.25;66.05
6835;BME280;3455;42.150;24.734;2023-05-29T03:04:47;67949.72;;;23.41;65.35
6835;BME280;3455;42.150;24.734;2023-05-29T03:07:15;67937.09;;;23.27;65.32
6835;BME280;3455;42.150;24.734;2023-05-29T03:09:42;67938.47;;;23.38;65.34
6835;BME280;3455;42.150;24.734;2023-05-29T03:12:10;67949.47;;;23.43;65.07
6835;BME280;3455;42.150;24.734;2023-05-29T03:14:37;67951.28;;;23.17;64.89
6835;BME280;3455;42.150;24.734;2023-05-29T03:17:04;67933.94;;;23.43;64.37
6835;BME280;3455;42.150;24.734;2023-05-29T03:19:32;68034.81;;;23.00;65.46
6835;BME280;3455;42.150;24.734;2023-05-29T03:21:58;67887.84;;;22.75;66.89
6835;BME280;3455;42.150;24.734;2023-05-29T03:24:25;67872.78;;;22.82;66.98
6835;BME280;3455;42.150;24.734;2023-05-29T03:26:52;67875.34;;;22.82;67.33
6835;BME280;3455;42.150;24.734;2023-05-29T03:29:20;67916.00;;;23.04;66.91
6835;BME280;3455;42.150;24.734;2023-05-29T03:31:47;67915.91;;;23.31;65.93
6835;BME280;3455;42.150;24.734;2023-05-29T03:34:14;67961.31;;;23.30;66.39
6835;BME280;3455;42.150;24.734;2023-05-29T03:36:41;67904.84;;;23.06;66.55
6835;BME280;3455;42.150;24.734;2023-05-29T03:39:08;67922.81;;;23.01;66.76
6835;BME280;3455;42.150;24.734;2023-05-29T03:41:34;67882.03;;;23.02;66.84
6835;BME280;3455;42.150;24.734;2023-05-29T03:44:01;67949.97;;;23.39;66.12
6835;BME280;3455;42.150;24.734;2023-05-29T03:46:31;67936.59;;;23.31;66.45
6835;BME280;3455;42.150;24.734;2023-05-29T03:48:57;67948.72;;;23.17;66.85
6835;BME280;3455;42.150;24.734;2023-05-29T03:51:24;67937.44;;;23.14;66.87
6835;BME280;3455;42.150;24.734;2023-05-29T03:53:51;67913.03;;;23.02;67.52
6835;BME280;3455;42.150;24.734;2023-05-29T03:56:17;67932.56;;;23.01;67.11
6835;BME280;3455;42.150;24.734;2023-05-29T03:58:44;67938.78;;;23.24;66.63
6835;BME280;3455;42.150;24.734;2023-05-29T04:01:11;67977.34;;;23.58;65.40
6835;BME280;3455;42.150;24.734;2023-05-29T04:03:39;67968.41;;;23.73;65.19
6835;BME280;3455;42.150;24.734;2023-05-29T04:06:06;67962.06;;;23.40;65.78
6835;BME280;3455;42.150;24.734;2023-05-29T04:08:33;67987.78;;;23.63;65.06
6835;BME280;3455;42.150;24.734;2023-05-29T04:11:01;67956.88;;;23.72;64.40
6835;BME280;3455;42.150;24.734;2023-05-29T04:13:29;67993.53;;;23.63;64.04
6835;BME280;3455;42.150;24.734;2023-05-29T04:15:55;67943.94;;;23.24;64.91
6835;BME280;3455;42.150;24.734;2023-05-29T04:18:22;67935.78;;;23.17;65.82
6835;BME280;3455;42.150;24.734;2023-05-29T04:20:52;68020.31;;;23.50;64.83
6835;BME280;3455;42.150;24.734;2023-05-29T04:23:19;67998.53;;;23.54;64.24
6835;BME280;3455;42.150;24.734;2023-05-29T04:25:46;67982.84;;;23.61;63.82
6835;BME280;3455;42.150;24.734;2023-05-29T04:28:16;67921.97;;;23.03;65.38
6835;BME280;3455;42.150;24.734;2023-05-29T04:30:42;67891.72;;;22.97;65.04
6835;BME280;3455;42.150;24.734;2023-05-29T04:33:09;67922.59;;;23.19;64.91
6835;BME280;3455;42.150;24.734;2023-05-29T04:35:37;67989.69;;;23.74;63.56
6835;BME280;3455;42.150;24.734;2023-05-29T04:38:05;68024.97;;;23.82;62.36
6835;BME280;3455;42.150;24.734;2023-05-29T04:40:32;67959.38;;;23.36;62.96
6835;BME280;3455;42.150;24.734;2023-05-29T04:42:59;68011.09;;;23.79;62.30
6835;BME280;3455;42.150;24.734;2023-05-29T04:45:27;67986.28;;;23.43;63.52
6835;BME280;3455;42.150;24.734;2023-05-29T04:47:54;67982.09;;;23.67;63.08
6835;BME280;3455;42.150;24.734;2023-05-29T04:50:21;67970.75;;;23.59;62.91
6835;BME280;3455;42.150;24.734;2023-05-29T04:52:49;68014.94;;;23.84;62.89
6835;BME280;3455;42.150;24.734;2023-05-29T04:55:18;68043.94;;;23.96;62.96
6835;BME280;3455;42.150;24.734;2023-05-29T04:57:44;67990.38;;;23.79;63.28
6835;BME280;3455;42.150;24.734;2023-05-29T05:00:12;68018.34;;;23.99;63.30
6835;BME280;3455;42.150;24.734;2023-05-29T05:02:41;68084.44;;;24.25;62.44
6835;BME280;3455;42.150;24.734;2023-05-29T05:05:09;68090.94;;;24.35;62.27
6835;BME280;3455;42.150;24.734;2023-05-29T05:07:36;68065.97;;;24.22;62.34
6835;BME280;3455;42.150;24.734;2023-05-29T05:10:03;68095.97;;;24.26;62.29
6835;BME280;3455;42.150;24.734;2023-05-29T05:12:31;68160.75;;;23.83;61.69
6835;BME280;3455;42.150;24.734;2023-05-29T05:14:58;68000.06;;;23.74;62.51
6835;BME280;3455;42.150;24.734;2023-05-29T05:17:25;68006.56;;;23.84;61.82
6835;BME280;3455;42.150;24.734;2023-05-29T05:19:53;68007.94;;;23.94;62.16
6835;BME280;3455;42.150;24.734;2023-05-29T05:22:20;67982.03;;;23.62;62.69
6835;BME280;3455;42.150;24.734;2023-05-29T05:24:46;67960.88;;;23.39;63.08
6835;BME280;3455;42.150;24.734;2023-05-29T05:27:13;68038.56;;;24.03;61.47
6835;BME280;3455;42.150;24.734;2023-05-29T05:29:41;68051.28;;;24.21;60.66
6835;BME280;3455;42.150;24.734;2023-05-29T05:32:08;68096.91;;;24.45;59.75
6835;BME280;3455;42.150;24.734;2023-05-29T05:34:34;68120.53;;;24.47;59.28
6835;BME280;3455;42.150;24.734;2023-05-29T05:37:01;68082.00;;;24.18;60.34
6835;BME280;3455;42.150;24.734;2023-05-29T05:39:28;68063.72;;;24.25;60.99
6835;BME280;3455;42.150;24.734;2023-05-29T05:41:55;68059.19;;;24.30;60.74
6835;BME280;3455;42.150;24.734;2023-05-29T05:44:22;68121.38;;;24.62;59.34
6835;BME280;3455;42.150;24.734;2023-05-29T05:46:50;68117.88;;;24.59;58.68
6835;BME280;3455;42.150;24.734;2023-05-29T05:49:17;68130.59;;;24.61;59.42
6835;BME280;3455;42.150;24.734;2023-05-29T05:51:44;68140.44;;;24.97;57.78
6835;BME280;3455;42.150;24.734;2023-05-29T05:54:10;68255.56;;;25.52;57.18
6835;BME280;3455;42.150;24.734;2023-05-29T05:56:37;68084.50;;;24.61;58.50
6835;BME280;3455;42.150;24.734;2023-05-29T05:59:04;68177.16;;;24.88;57.50
6835;BME280;3455;42.150;24.734;2023-05-29T06:01:31;68154.72;;;25.07;57.50
6835;BME280;3455;42.150;24.734;2023-05-29T06:03:59;68173.13;;;25.05;56.93
6835;BME280;3455;42.150;24.734;2023-05-29T06:06:26;68136.72;;;25.16;57.71
6835;BME280;3455;42.150;24.734;2023-05-29T06:08:53;68176.06;;;25.23;57.00
6835;BME280;3455;42.150;24.734;2023-05-29T06:11:21;68202.00;;;25.23;57.18
6835;BME280;3455;42.150;24.734;2023-05-29T06:13:48;68242.19;;;25.45;56.94
6835;BME280;3455;42.150;24.734;2023-05-29T06:16:15;68297.75;;;25.89;55.42
6835;BME280;3455;42.150;24.734;2023-05-29T06:18:42;68346.53;;;26.05;54.82
6835;BME280;3455;42.150;24.734;2023-05-29T06:21:11;68408.50;;;26.82;54.01
6835;BME280;3455;42.150;24.734;2023-05-29T06:23:38;68319.69;;;26.22;52.65
6835;BME280;3455;42.150;24.734;2023-05-29T06:26:07;68292.75;;;25.82;53.94
6835;BME280;3455;42.150;24.734;2023-05-29T06:28:33;68304.81;;;25.95;53.78
6835;BME280;3455;42.150;24.734;2023-05-29T06:31:00;68412.88;;;26.67;52.35
6835;BME280;3455;42.150;24.734;2023-05-29T06:33:27;68335.41;;;26.31;53.33
6835;BME280;3455;42.150;24.734;2023-05-29T06:35:55;68296.03;;;26.24;51.69
6835;BME280;3455;42.150;24.734;2023-05-29T06:38:23;68285.19;;;25.96;53.10
6835;BME280;3455;42.150;24.734;2023-05-29T06:40:50;68388.84;;;26.62;52.04
6835;BME280;3455;42.150;24.734;2023-05-29T06:43:16;68345.97;;;26.40;52.43
6835;BME280;3455;42.150;24.734;2023-05-29T06:45:43;68356.09;;;26.58;51.80
6835;BME280;3455;42.150;24.734;2023-05-29T06:48:10;68324.38;;;26.26;53.77
6835;BME280;3455;42.150;24.734;2023-05-29T06:50:37;68434.59;;;26.86;51.78
6835;BME280;3455;42.150;24.734;2023-05-29T06:53:03;68374.13;;;26.65;51.78
6835;BME280;3455;42.150;24.734;2023-05-29T06:55:32;68479.06;;;27.52;50.38
6835;BME280;3455;42.150;24.734;2023-05-29T06:57:59;68621.88;;;28.29;49.00
6835;BME280;3455;42.150;24.734;2023-05-29T07:00:25;68576.06;;;28.10;48.61
6835;BME280;3455;42.150;24.734;2023-05-29T07:02:52;68619.75;;;28.25;47.84
6835;BME280;3455;42.150;24.734;2023-05-29T07:05:19;68576.69;;;27.94;48.40
6835;BME280;3455;42.150;24.734;2023-05-29T07:07:46;68608.22;;;28.29;46.24
6835;BME280;3455;42.150;24.734;2023-05-29T07:10:12;68725.94;;;29.04;44.94
6835;BME280;3455;42.150;24.734;2023-05-29T07:12:41;68767.06;;;29.36;44.02
6835;BME280;3455;42.150;24.734;2023-05-29T07:15:08;68721.66;;;29.07;44.11
6835;BME280;3455;42.150;24.734;2023-05-29T07:17:35;68624.47;;;28.66;43.89
6835;BME280;3455;42.150;24.734;2023-05-29T07:20:02;68648.06;;;28.54;44.70
6835;BME280;3455;42.150;24.734;2023-05-29T07:22:33;68683.91;;;28.86;43.70
6835;BME280;3455;42.150;24.734;2023-05-29T07:25:00;68677.16;;;28.62;44.97
6835;BME280;3455;42.150;24.734;2023-05-29T07:27:26;68652.06;;;28.69;44.35
6835;BME280;3455;42.150;24.734;2023-05-29T07:29:54;68716.59;;;29.01;44.23
6835;BME280;3455;42.150;24.734;2023-05-29T07:32:21;68608.31;;;28.33;43.85
6835;BME280;3455;42.150;24.734;2023-05-29T07:34:48;68653.28;;;28.39;44.62
6835;BME280;3455;42.150;24.734;2023-05-29T07:37:15;68731.81;;;29.09;43.62
6835;BME280;3455;42.150;24.734;2023-05-29T07:39:44;68739.69;;;29.30;43.19
6835;BME280;3455;42.150;24.734;2023-05-29T07:42:11;68887.06;;;30.36;41.57
6835;BME280;3455;42.150;24.734;2023-05-29T07:44:38;68811.66;;;29.29;43.07
6835;BME280;3455;42.150;24.734;2023-05-29T07:47:08;69001.72;;;30.81;39.97
6835;BME280;3455;42.150;24.734;2023-05-29T07:49:35;68984.16;;;30.75;39.81
6835;BME280;3455;42.150;24.734;2023-05-29T07:52:02;68929.66;;;30.45;41.85
6835;BME280;3455;42.150;24.734;2023-05-29T07:54:30;68999.34;;;30.79;41.26
6835;BME280;3455;42.150;24.734;2023-05-29T07:56:58;68951.81;;;30.51;41.22
6835;BME280;3455;42.150;24.734;2023-05-29T07:59:24;68807.78;;;29.60;43.64
6835;BME280;3455;42.150;24.734;2023-05-29T08:01:51;68939.97;;;30.36;41.46
6835;BME280;3455;42.150;24.734;2023-05-29T08:04:19;68905.88;;;30.32;42.00
6835;BME280;3455;42.150;24.734;2023-05-29T08:06:46;68848.19;;;29.81;43.40
6835;BME280;3455;42.150;24.734;2023-05-29T08:09:13;68939.09;;;30.17;42.74
6835;BME280;3455;42.150;24.734;2023-05-29T08:11:40;68817.53;;;29.70;43.19
6835;BME280;3455;42.150;24.734;2023-05-29T08:14:06;68869.13;;;30.02;43.11
6835;BME280;3455;42.150;24.734;2023-05-29T08:16:33;68886.88;;;29.85;42.70
6835;BME280;3455;42.150;24.734;2023-05-29T08:19:00;68895.84;;;30.39;42.79
6835;BME280;3455;42.150;24.734;2023-05-29T08:21:28;68994.78;;;30.84;41.39
6835;BME280;3455;42.150;24.734;2023-05-29T08:23:55;69086.75;;;31.23;41.64
6835;BME280;3455;42.150;24.734;2023-05-29T08:26:22;69099.22;;;31.38;40.32
6835;BME280;3455;42.150;24.734;2023-05-29T08:28:49;69346.75;;;31.71;40.12
6835;BME280;3455;42.150;24.734;2023-05-29T08:31:16;69183.91;;;31.94;37.38
6835;BME280;3455;42.150;24.734;2023-05-29T08:33:43;69101.47;;;31.52;38.75
6835;BME280;3455;42.150;24.734;2023-05-29T08:36:10;69364.13;;;32.89;38.13
6835;BME280;3455;42.150;24.734;2023-05-29T08:38:38;69585.66;;;34.28;34.48
6835;BME280;3455;42.150;24.734;2023-05-29T08:41:07;69523.53;;;33.43;34.87
6835;BME280;3455;42.150;24.734;2023-05-29T08:43:34;69475.00;;;33.42;34.18
6835;BME280;3455;42.150;24.734;2023-05-29T08:46:02;69438.19;;;33.42;34.37
6835;BME280;3455;42.150;24.734;2023-05-29T08:48:30;69505.44;;;33.82;33.49
6835;BME280;3455;42.150;24.734;2023-05-29T08:50:58;69281.97;;;32.58;35.16
6835;BME280;3455;42.150;24.734;2023-05-29T08:53:28;69350.41;;;32.88;35.14
6835;BME280;3455;42.150;24.734;2023-05-29T08:55:58;69252.44;;;32.53;35.35
6835;BME280;3455;42.150;24.734;2023-05-29T08:58:25;69237.09;;;32.40;36.35
6835;BME280;3455;42.150;24.734;2023-05-29T09:00:52;69330.44;;;32.80;35.37
6835;BME280;3455;42.150;24.734;2023-05-29T09:03:20;69429.81;;;33.25;32.66
6835;BME280;3455;42.150;24.734;2023-05-29T09:05:47;69510.69;;;33.82;32.32
6835;BME280;3455;42.150;24.734;2023-05-29T09:08:15;69468.22;;;33.74;33.55
6835;BME280;3455;42.150;24.734;2023-05-29T09:10:42;69531.22;;;33.65;34.48
6835;BME280;3455;42.150;24.734;2023-05-29T09:13:12;69310.59;;;32.81;34.74
6835;BME280;3455;42.150;24.734;2023-05-29T09:15:39;69313.88;;;32.66;34.91
6835;BME280;3455;42.150;24.734;2023-05-29T09:18:08;69209.91;;;32.16;36.34
6835;BME280;3455;42.150;24.734;2023-05-29T09:20:35;69226.47;;;32.31;35.58
6835;BME280;3455;42.150;24.734;2023-05-29T09:23:03;69111.06;;;31.74;36.82
6835;BME280;3455;42.150;24.734;2023-05-29T09:25:32;69071.22;;;31.37;37.63
6835;BME280;3455;42.150;24.734;2023-05-29T09:28:01;69091.25;;;31.50;37.03
6835;BME280;3455;42.150;24.734;2023-05-29T09:30:35;69223.31;;;32.14;35.76
6835;BME280;3455;42.150;24.734;2023-05-29T09:33:03;69074.44;;;31.58;36.09
6835;BME280;3455;42.150;24.734;2023-05-29T09:35:38;69075.34;;;31.40;37.25
6835;BME280;3455;42.150;24.734;2023-05-29T09:38:06;69114.03;;;31.56;35.40
6835;BME280;3455;42.150;24.734;2023-05-29T09:40:34;69042.94;;;31.12;36.63
6835;BME280;3455;42.150;24.734;2023-05-29T09:43:05;69002.91;;;30.82;37.48
6835;BME280;3455;42.150;24.734;2023-05-29T09:45:36;68971.66;;;30.75;38.06
6835;BME280;3455;42.150;24.734;2023-05-29T09:48:05;68993.06;;;30.87;38.35
6835;BME280;3455;42.150;24.734;2023-05-29T09:50:32;69003.06;;;30.91;38.65
6835;BME280;3455;42.150;24.734;2023-05-29T09:53:00;69124.00;;;31.80;35.84
6835;BME280;3455;42.150;24.734;2023-05-29T09:55:27;69092.94;;;31.47;35.65
6835;BME280;3455;42.150;24.734;2023-05-29T09:57:55;69093.84;;;31.29;36.39
6835;BME280;3455;42.150;24.734;2023-05-29T10:00:22;69036.75;;;31.30;37.37
6835;BME280;3455;42.150;24.734;2023-05-29T10:02:50;69204.00;;;32.11;35.50
6835;BME280;3455;42.150;24.734;2023-05-29T10:05:17;69089.31;;;31.39;35.84
6835;BME280;3455;42.150;24.734;2023-05-29T10:07:46;69139.88;;;31.69;34.40
6835;BME280;3455;42.150;24.734;2023-05-29T10:10:14;69081.78;;;31.62;35.35
6835;BME280;3455;42.150;24.734;2023-05-29T10:12:44;69117.63;;;31.63;34.50
6835;BME280;3455;42.150;24.734;2023-05-29T10:15:15;69166.59;;;31.65;35.19
6835;BME280;3455;42.150;24.734;2023-05-29T10:17:51;69142.94;;;31.81;35.64
6835;BME280;3455;42.150;24.734;2023-05-29T10:20:20;69214.63;;;32.20;33.47
6835;BME280;3455;42.150;24.734;2023-05-29T10:22:49;69133.44;;;31.68;35.30
6835;BME280;3455;42.150;24.734;2023-05-29T10:25:18;69199.13;;;31.98;35.26
6835;BME280;3455;42.150;24.734;2023-05-29T10:27:45;69250.97;;;32.34;34.18
6835;BME280;3455;42.150;24.734;2023-05-29T10:30:19;69363.53;;;33.09;32.46
6835;BME280;3455;42.150;24.734;2023-05-29T10:33:02;69343.06;;;33.05;32.96
6835;BME280;3455;42.150;24.734;2023-05-29T10:35:42;69430.31;;;33.62;31.77
6835;BME280;3455;42.150;24.734;2023-05-29T10:38:12;69267.81;;;32.67;31.60
6835;BME280;3455;42.150;24.734;2023-05-29T10:40:40;69284.34;;;32.81;31.50
6835;BME280;3455;42.150;24.734;2023-05-29T10:43:07;69322.44;;;32.91;31.46
6835;BME280;3455;42.150;24.734;2023-05-29T10:45:49;69409.09;;;33.48;31.21
6835;BME280;3455;42.150;24.734;2023-05-29T10:48:37;69525.16;;;33.92;31.57
6835;BME280;3455;42.150;24.734;2023-05-29T10:51:05;69293.81;;;32.89;31.70
6835;BME280;3455;42.150;24.734;2023-05-29T10:53:33;69380.97;;;33.22;32.66
6835;BME280;3455;42.150;24.734;2023-05-29T10:56:08;69459.38;;;33.71;31.67
6835;BME280;3455;42.150;24.734;2023-05-29T10:58:36;69441.44;;;33.42;31.50
6835;BME280;3455;42.150;24.734;2023-05-29T11:01:04;69439.16;;;33.65;30.19
6835;BME280;3455;42.150;24.734;2023-05-29T11:03:32;69782.88;;;35.40;28.75
6835;BME280;3455;42.150;24.734;2023-05-29T11:06:01;69859.38;;;36.01;28.88
6835;BME280;3455;42.150;24.734;2023-05-29T11:08:32;69944.78;;;36.20;28.69
6835;BME280;3455;42.150;24.734;2023-05-29T11:11:01;70407.56;;;38.55;27.45
6835;BME280;3455;42.150;24.734;2023-05-29T11:13:32;70743.75;;;40.39;23.10
6835;BME280;3455;42.150;24.734;2023-05-29T11:16:11;70895.84;;;40.87;22.92
6835;BME280;3455;42.150;24.734;2023-05-29T11:18:40;71470.97;;;43.66;20.09
6835;BME280;3455;42.150;24.734;2023-05-29T11:21:18;71327.84;;;43.10;20.56
6835;BME280;3455;42.150;24.734;2023-05-29T11:23:50;70802.38;;;40.48;23.33
6835;BME280;3455;42.150;24.734;2023-05-29T11:26:17;70487.47;;;39.15;24.07
6835;BME280;3455;42.150;24.734;2023-05-29T11:28:44;70260.59;;;37.92;24.44
6835;BME280;3455;42.150;24.734;2023-05-29T11:31:12;70445.50;;;38.90;23.85
6835;BME280;3455;42.150;24.734;2023-05-29T11:33:39;70548.41;;;39.10;24.08
6835;BME280;3455;42.150;24.734;2023-05-29T11:36:09;70324.72;;;38.29;24.52
6835;BME280;3455;42.150;24.734;2023-05-29T11:38:36;69942.84;;;36.10;26.99
6835;BME280;3455;42.150;24.734;2023-05-29T11:41:03;69997.16;;;36.50;27.64
6835;BME280;3455;42.150;24.734;2023-05-29T11:43:31;69847.13;;;35.63;28.75
6835;BME280;3455;42.150;24.734;2023-05-29T11:45:58;69748.06;;;35.23;29.56
6835;BME280;3455;42.150;24.734;2023-05-29T11:48:25;69789.00;;;35.59;28.75
6835;BME280;3455;42.150;24.734;2023-05-29T11:50:52;69918.16;;;36.06;27.98
6835;BME280;3455;42.150;24.734;2023-05-29T11:53:20;69824.28;;;35.66;27.47
6835;BME280;3455;42.150;24.734;2023-05-29T11:55:47;69955.19;;;36.11;27.11
6835;BME280;3455;42.150;24.734;2023-05-29T11:58:14;69863.50;;;36.00;28.61
6835;BME280;3455;42.150;24.734;2023-05-29T12:00:42;69741.44;;;35.13;28.67
6835;BME280;3455;42.150;24.734;2023-05-29T12:03:11;69792.44;;;35.53;29.05
6835;BME280;3455;42.150;24.734;2023-05-29T12:05:44;69654.34;;;34.83;28.09
6835;BME280;3455;42.150;24.734;2023-05-29T12:08:12;69656.47;;;34.87;27.93
6835;BME280;3455;42.150;24.734;2023-05-29T12:10:47;69739.94;;;35.30;28.65
6835;BME280;3455;42.150;24.734;2023-05-29T12:13:14;69677.53;;;35.08;28.97
6835;BME280;3455;42.150;24.734;2023-05-29T12:15:42;69835.66;;;35.81;27.52
6835;BME280;3455;42.150;24.734;2023-05-29T12:18:09;69787.03;;;35.43;28.89
6835;BME280;3455;42.150;24.734;2023-05-29T12:20:36;69458.09;;;33.82;30.04
6835;BME280;3455;42.150;24.734;2023-05-29T12:23:03;69598.81;;;34.49;29.82
6835;BME280;3455;42.150;24.734;2023-05-29T12:25:33;69844.91;;;35.71;27.99
6835;BME280;3455;42.150;24.734;2023-05-29T12:28:03;69796.84;;;35.75;27.82
6835;BME280;3455;42.150;24.734;2023-05-29T12:30:30;69731.25;;;35.36;27.65
6835;BME280;3455;42.150;24.734;2023-05-29T12:32:57;69967.16;;;36.47;26.45
6835;BME280;3455;42.150;24.734;2023-05-29T12:35:26;70003.16;;;36.39;26.91
6835;BME280;3455;42.150;24.734;2023-05-29T12:37:54;69663.44;;;34.84;27.45
6835;BME280;3455;42.150;24.734;2023-05-29T12:40:22;69852.53;;;35.73;26.79
6835;BME280;3455;42.150;24.734;2023-05-29T12:42:54;69925.81;;;36.09;26.63
6835;BME280;3455;42.150;24.734;2023-05-29T12:45:24;69636.69;;;34.57;28.84
6835;BME280;3455;42.150;24.734;2023-05-29T12:47:51;69604.81;;;34.38;28.53
6835;BME280;3455;42.150;24.734;2023-05-29T12:50:23;69620.78;;;34.68;28.07
6835;BME280;3455;42.150;24.734;2023-05-29T12:52:54;69620.78;;;34.68;28.63
6835;BME280;3455;42.150;24.734;2023-05-29T12:55:21;69590.13;;;34.55;28.83
6835;BME280;3455;42.150;24.734;2023-05-29T12:57:48;69458.34;;;33.59;30.13
6835;BME280;3455;42.150;24.734;2023-05-29T13:00:16;69462.81;;;33.86;30.68
6835;BME280;3455;42.150;24.734;2023-05-29T13:02:46;69434.47;;;33.66;31.08
6835;BME280;3455;42.150;24.734;2023-05-29T13:05:14;69432.16;;;33.48;31.42
6835;BME280;3455;42.150;24.734;2023-05-29T13:07:41;69430.84;;;33.58;31.03
6835;BME280;3455;42.150;24.734;2023-05-29T13:10:09;69420.31;;;33.58;31.32
6835;BME280;3455;42.150;24.734;2023-05-29T13:12:36;69379.25;;;33.45;30.58
6835;BME280;3455;42.150;24.734;2023-05-29T13:15:03;69245.94;;;32.48;32.47